sensor_id;sensor_type;location;lat;lon;timestamp;P1;durP1;ratioP1;P2;durP2;ratioP2
4432;SDS011;2229;48.708;9.706;2022-08-01T00:02:26;2.60;;;1.50;;
4432;SDS011;2229;48.708;9.706;2022-08-01T00:04:53;3.03;;;1.73;;
4432;SDS011;2229;48.708;9.706;2022-08-01T00:07:19;2.77;;;2.13;;
4432;SDS011;2229;48.708;9.706;2022-08-01T00:09:46;2.73;;;1.27;;
4432;SDS011;2229;48.708;9.706;2022-08-01T00:12:12;2.67;;;1.70;;
4432;SDS011;2229;48.708;9.706;2022-08-01T00:14:39;2.80;;;1.80;;
4432;SDS011;2229;48.708;9.706;2022-08-01T00:17:06;2.50;;;1.67;;
4432;SDS011;2229;48.708;9.706;2022-08-01T00:19:33;2.00;;;1.40;;
4432;SDS011;2229;48.708;9.706;2022-08-01T00:22:00;3.47;;;1.60;;
4432;SDS011;2229;48.708;9.706;2022-08-01T00:24:26;2.77;;;1.83;;
4432;SDS011;2229;48.708;9.706;2022-08-01T00:26:52;2.53;;;1.67;;
4432;SDS011;2229;48.708;9.706;2022-08-01T00:29:19;2.27;;;1.37;;
4432;SDS011;2229;48.708;9.706;2022-08-01T00:31:45;4.90;;;1.73;;
4432;SDS011;2229;48.708;9.706;2022-08-01T00:34:13;2.77;;;1.80;;
4432;SDS011;2229;48.708;9.706;2022-08-01T00:36:39;2.47;;;1.53;;
4432;SDS011;2229;48.708;9.706;2022-08-01T00:39:06;2.03;;;1.50;;
4432;SDS011;2229;48.708;9.706;2022-08-01T00:41:32;2.93;;;1.60;;
4432;SDS011;2229;48.708;9.706;2022-08-01T00:44:01;1.83;;;1.13;;
4432;SDS011;2229;48.708;9.706;2022-08-01T00:46:29;2.80;;;1.80;;
4432;SDS011;2229;48.708;9.706;2022-08-01T00:48:55;3.60;;;1.60;;
4432;SDS011;2229;48.708;9.706;2022-08-01T00:51:23;2.50;;;1.73;;
4432;SDS011;2229;48.708;9.706;2022-08-01T00:53:51;2.53;;;1.33;;
4432;SDS011;2229;48.708;9.706;2022-08-01T00:56:19;2.20;;;1.40;;
4432;SDS011;2229;48.708;9.706;2022-08-01T00:58:46;3.33;;;1.83;;
4432;SDS011;2229;48.708;9.706;2022-08-01T01:01:13;1.60;;;0.90;;
4432;SDS011;2229;48.708;9.706;2022-08-01T01:03:39;2.00;;;1.20;;
4432;SDS011;2229;48.708;9.706;2022-08-01T01:06:10;2.10;;;1.27;;
4432;SDS011;2229;48.708;9.706;2022-08-01T01:08:46;3.10;;;1.40;;
4432;SDS011;2229;48.708;9.706;2022-08-01T01:11:20;2.50;;;1.33;;
4432;SDS011;2229;48.708;9.706;2022-08-01T01:13:52;2.47;;;1.50;;
4432;SDS011;2229;48.708;9.706;2022-08-01T01:16:41;4.07;;;1.87;;
4432;SDS011;2229;48.708;9.706;2022-08-01T01:19:11;2.60;;;1.50;;
4432;SDS011;2229;48.708;9.706;2022-08-01T01:21:49;2.10;;;1.33;;
4432;SDS011;2229;48.708;9.706;2022-08-01T01:24:34;2.50;;;1.83;;
4432;SDS011;2229;48.708;9.706;2022-08-01T01:27:07;3.60;;;1.50;;
4432;SDS011;2229;48.708;9.706;2022-08-01T01:29:46;2.80;;;1.57;;
4432;SDS011;2229;48.708;9.706;2022-08-01T01:32:17;1.87;;;1.20;;
4432;SDS011;2229;48.708;9.706;2022-08-01T01:34:47;1.90;;;1.30;;
4432;SDS011;2229;48.708;9.706;2022-08-01T01:37:17;2.57;;;1.60;;
4432;SDS011;2229;48.708;9.706;2022-08-01T01:39:46;10.57;;;2.50;;
4432;SDS011;2229;48.708;9.706;2022-08-01T01:42:15;1.90;;;1.33;;
4432;SDS011;2229;48.708;9.706;2022-08-01T01:44:42;2.47;;;1.70;;
4432;SDS011;2229;48.708;9.706;2022-08-01T01:47:11;3.00;;;1.00;;
4432;SDS011;2229;48.708;9.706;2022-08-01T01:49:38;1.73;;;1.03;;
4432;SDS011;2229;48.708;9.706;2022-08-01T01:52:07;2.30;;;1.37;;
4432;SDS011;2229;48.708;9.706;2022-08-01T01:54:37;2.70;;;1.30;;
4432;SDS011;2229;48.708;9.706;2022-08-01T01:57:08;2.33;;;1.60;;
4432;SDS011;2229;48.708;9.706;2022-08-01T01:59:37;2.50;;;1.20;;
4432;SDS011;2229;48.708;9.706;2022-08-01T02:02:05;2.30;;;1.67;;
4432;SDS011;2229;48.708;9.706;2022-08-01T02:04:34;2.90;;;1.47;;
4432;SDS011;2229;48.708;9.706;2022-08-01T02:07:03;2.23;;;1.40;;
4432;SDS011;2229;48.708;9.706;2022-08-01T02:09:31;4.20;;;1.70;;
4432;SDS011;2229;48.708;9.706;2022-08-01T02:11:59;5.53;;;1.43;;
4432;SDS011;2229;48.708;9.706;2022-08-01T02:14:27;2.53;;;1.30;;
4432;SDS011;2229;48.708;9.706;2022-08-01T02:16:55;3.07;;;1.60;;
4432;SDS011;2229;48.708;9.706;2022-08-01T02:19:24;4.50;;;1.70;;
4432;SDS011;2229;48.708;9.706;2022-08-01T02:21:54;3.10;;;1.90;;
4432;SDS011;2229;48.708;9.706;2022-08-01T02:24:24;2.63;;;1.13;;
4432;SDS011;2229;48.708;9.706;2022-08-01T02:26:58;3.43;;;1.67;;
4432;SDS011;2229;48.708;9.706;2022-08-01T02:29:34;1.97;;;1.17;;
4432;SDS011;2229;48.708;9.706;2022-08-01T02:32:05;1.47;;;0.97;;
4432;SDS011;2229;48.708;9.706;2022-08-01T02:34:33;3.00;;;1.57;;
4432;SDS011;2229;48.708;9.706;2022-08-01T02:37:02;2.53;;;1.57;;
4432;SDS011;2229;48.708;9.706;2022-08-01T02:39:30;3.20;;;1.47;;
4432;SDS011;2229;48.708;9.706;2022-08-01T02:41:59;2.03;;;1.67;;
4432;SDS011;2229;48.708;9.706;2022-08-01T02:44:30;2.33;;;1.57;;
4432;SDS011;2229;48.708;9.706;2022-08-01T02:47:00;2.10;;;1.00;;
4432;SDS011;2229;48.708;9.706;2022-08-01T02:49:29;1.60;;;1.00;;
4432;SDS011;2229;48.708;9.706;2022-08-01T02:51:58;2.57;;;1.60;;
4432;SDS011;2229;48.708;9.706;2022-08-01T02:54:27;1.93;;;1.23;;
4432;SDS011;2229;48.708;9.706;2022-08-01T02:56:56;3.03;;;1.90;;
4432;SDS011;2229;48.708;9.706;2022-08-01T02:59:25;1.83;;;1.00;;
4432;SDS011;2229;48.708;9.706;2022-08-01T03:01:54;3.17;;;1.40;;
4432;SDS011;2229;48.708;9.706;2022-08-01T03:04:22;3.30;;;2.00;;
4432;SDS011;2229;48.708;9.706;2022-08-01T03:06:49;2.30;;;1.47;;
4432;SDS011;2229;48.708;9.706;2022-08-01T03:09:18;2.93;;;1.97;;
4432;SDS011;2229;48.708;9.706;2022-08-01T03:11:46;2.37;;;1.30;;
4432;SDS011;2229;48.708;9.706;2022-08-01T03:14:13;2.80;;;1.80;;
4432;SDS011;2229;48.708;9.706;2022-08-01T03:16:41;2.67;;;1.73;;
4432;SDS011;2229;48.708;9.706;2022-08-01T03:19:11;2.47;;;1.40;;
4432;SDS011;2229;48.708;9.706;2022-08-01T03:21:39;2.63;;;1.70;;
4432;SDS011;2229;48.708;9.706;2022-08-01T03:24:08;4.27;;;1.50;;
4432;SDS011;2229;48.708;9.706;2022-08-01T03:26:38;2.40;;;1.43;;
4432;SDS011;2229;48.708;9.706;2022-08-01T03:29:06;2.40;;;1.43;;
4432;SDS011;2229;48.708;9.706;2022-08-01T03:31:37;2.70;;;1.50;;
4432;SDS011;2229;48.708;9.706;2022-08-01T03:34:08;2.63;;;1.67;;
4432;SDS011;2229;48.708;9.706;2022-08-01T03:36:35;5.17;;;1.93;;
4432;SDS011;2229;48.708;9.706;2022-08-01T03:39:08;2.30;;;1.43;;
4432;SDS011;2229;48.708;9.706;2022-08-01T03:41:38;1.60;;;1.03;;
4432;SDS011;2229;48.708;9.706;2022-08-01T03:44:14;2.20;;;1.57;;
4432;SDS011;2229;48.708;9.706;2022-08-01T03:46:45;3.30;;;1.40;;
4432;SDS011;2229;48.708;9.706;2022-08-01T03:49:14;3.40;;;1.67;;
4432;SDS011;2229;48.708;9.706;2022-08-01T03:51:44;2.03;;;1.53;;
4432;SDS011;2229;48.708;9.706;2022-08-01T03:54:14;2.13;;;1.17;;
4432;SDS011;2229;48.708;9.706;2022-08-01T03:56:43;2.90;;;1.40;;
4432;SDS011;2229;48.708;9.706;2022-08-01T03:59:14;5.90;;;1.37;;
4432;SDS011;2229;48.708;9.706;2022-08-01T04:01:43;2.50;;;1.33;;
4432;SDS011;2229;48.708;9.706;2022-08-01T04:04:10;2.27;;;1.37;;
4432;SDS011;2229;48.708;9.706;2022-08-01T04:06:37;2.60;;;1.60;;
4432;SDS011;2229;48.708;9.706;2022-08-01T04:09:04;2.13;;;1.50;;
4432;SDS011;2229;48.708;9.706;2022-08-01T04:11:32;2.60;;;1.43;;
4432;SDS011;2229;48.708;9.706;2022-08-01T04:13:59;2.23;;;1.60;;
4432;SDS011;2229;48.708;9.706;2022-08-01T04:16:26;2.90;;;1.80;;
4432;SDS011;2229;48.708;9.706;2022-08-01T04:18:52;3.27;;;1.67;;
4432;SDS011;2229;48.708;9.706;2022-08-01T04:21:20;2.57;;;1.67;;
4432;SDS011;2229;48.708;9.706;2022-08-01T04:23:48;2.40;;;1.63;;
4432;SDS011;2229;48.708;9.706;2022-08-01T04:26:17;2.20;;;1.57;;
4432;SDS011;2229;48.708;9.706;2022-08-01T04:28:45;2.80;;;1.10;;
4432;SDS011;2229;48.708;9.706;2022-08-01T04:31:15;2.17;;;1.43;;
4432;SDS011;2229;48.708;9.706;2022-08-01T04:33:45;2.23;;;1.10;;
4432;SDS011;2229;48.708;9.706;2022-08-01T04:36:18;3.00;;;1.40;;
4432;SDS011;2229;48.708;9.706;2022-08-01T04:38:48;3.10;;;1.50;;
4432;SDS011;2229;48.708;9.706;2022-08-01T04:41:21;3.27;;;1.77;;
4432;SDS011;2229;48.708;9.706;2022-08-01T04:43:49;4.37;;;1.70;;
4432;SDS011;2229;48.708;9.706;2022-08-01T04:46:16;2.30;;;1.30;;
4432;SDS011;2229;48.708;9.706;2022-08-01T04:48:45;3.13;;;1.43;;
4432;SDS011;2229;48.708;9.706;2022-08-01T04:51:12;3.80;;;1.80;;
4432;SDS011;2229;48.708;9.706;2022-08-01T04:53:40;4.23;;;1.63;;
4432;SDS011;2229;48.708;9.706;2022-08-01T04:56:07;4.00;;;1.57;;
4432;SDS011;2229;48.708;9.706;2022-08-01T04:58:34;3.53;;;1.30;;
4432;SDS011;2229;48.708;9.706;2022-08-01T05:01:00;3.40;;;1.60;;
4432;SDS011;2229;48.708;9.706;2022-08-01T05:03:27;5.27;;;2.17;;
4432;SDS011;2229;48.708;9.706;2022-08-01T05:05:54;2.20;;;1.30;;
4432;SDS011;2229;48.708;9.706;2022-08-01T05:08:20;4.13;;;1.97;;
4432;SDS011;2229;48.708;9.706;2022-08-01T05:10:47;2.83;;;1.37;;
4432;SDS011;2229;48.708;9.706;2022-08-01T05:13:13;2.67;;;1.47;;
4432;SDS011;2229;48.708;9.706;2022-08-01T05:15:40;1.90;;;1.20;;
4432;SDS011;2229;48.708;9.706;2022-08-01T05:18:10;2.03;;;1.10;;
4432;SDS011;2229;48.708;9.706;2022-08-01T05:20:37;3.30;;;1.43;;
4432;SDS011;2229;48.708;9.706;2022-08-01T05:23:04;2.53;;;1.60;;
4432;SDS011;2229;48.708;9.706;2022-08-01T05:25:30;2.27;;;1.13;;
4432;SDS011;2229;48.708;9.706;2022-08-01T05:27:58;4.50;;;1.40;;
4432;SDS011;2229;48.708;9.706;2022-08-01T05:30:25;2.93;;;1.60;;
4432;SDS011;2229;48.708;9.706;2022-08-01T05:32:51;1.33;;;0.80;;
4432;SDS011;2229;48.708;9.706;2022-08-01T05:35:18;2.00;;;1.00;;
4432;SDS011;2229;48.708;9.706;2022-08-01T05:37:44;1.93;;;1.10;;
4432;SDS011;2229;48.708;9.706;2022-08-01T05:40:12;2.90;;;1.33;;
4432;SDS011;2229;48.708;9.706;2022-08-01T05:42:38;1.93;;;1.10;;
4432;SDS011;2229;48.708;9.706;2022-08-01T05:45:05;2.17;;;1.33;;
4432;SDS011;2229;48.708;9.706;2022-08-01T05:47:32;3.27;;;1.67;;
4432;SDS011;2229;48.708;9.706;2022-08-01T05:49:58;2.30;;;1.40;;
4432;SDS011;2229;48.708;9.706;2022-08-01T05:52:25;2.97;;;1.70;;
4432;SDS011;2229;48.708;9.706;2022-08-01T05:54:51;2.90;;;1.73;;
4432;SDS011;2229;48.708;9.706;2022-08-01T05:57:18;2.60;;;1.30;;
4432;SDS011;2229;48.708;9.706;2022-08-01T05:59:45;2.13;;;1.33;;
4432;SDS011;2229;48.708;9.706;2022-08-01T06:02:11;2.50;;;1.53;;
4432;SDS011;2229;48.708;9.706;2022-08-01T06:04:38;3.33;;;1.43;;
4432;SDS011;2229;48.708;9.706;2022-08-01T06:07:04;1.80;;;1.03;;
4432;SDS011;2229;48.708;9.706;2022-08-01T06:09:31;2.67;;;1.10;;
4432;SDS011;2229;48.708;9.706;2022-08-01T06:11:57;1.77;;;0.83;;
4432;SDS011;2229;48.708;9.706;2022-08-01T06:14:24;2.10;;;1.20;;
4432;SDS011;2229;48.708;9.706;2022-08-01T06:16:51;2.07;;;1.57;;
4432;SDS011;2229;48.708;9.706;2022-08-01T06:19:17;1.90;;;0.80;;
4432;SDS011;2229;48.708;9.706;2022-08-01T06:21:44;1.90;;;0.90;;
4432;SDS011;2229;48.708;9.706;2022-08-01T06:24:10;1.47;;;0.83;;
4432;SDS011;2229;48.708;9.706;2022-08-01T06:26:37;1.30;;;0.80;;
4432;SDS011;2229;48.708;9.706;2022-08-01T06:29:03;1.97;;;0.80;;
4432;SDS011;2229;48.708;9.706;2022-08-01T06:31:30;2.33;;;1.20;;
4432;SDS011;2229;48.708;9.706;2022-08-01T06:33:57;1.20;;;0.67;;
4432;SDS011;2229;48.708;9.706;2022-08-01T06:36:23;1.20;;;0.70;;
4432;SDS011;2229;48.708;9.706;2022-08-01T06:38:50;2.03;;;1.10;;
4432;SDS011;2229;48.708;9.706;2022-08-01T06:41:17;2.30;;;1.10;;
4432;SDS011;2229;48.708;9.706;2022-08-01T06:43:43;3.40;;;1.20;;
4432;SDS011;2229;48.708;9.706;2022-08-01T06:46:10;1.93;;;1.27;;
4432;SDS011;2229;48.708;9.706;2022-08-01T06:48:37;2.53;;;1.17;;
4432;SDS011;2229;48.708;9.706;2022-08-01T06:51:04;1.83;;;0.80;;
4432;SDS011;2229;48.708;9.706;2022-08-01T06:53:34;1.90;;;1.03;;
4432;SDS011;2229;48.708;9.706;2022-08-01T06:56:01;2.33;;;1.10;;
4432;SDS011;2229;48.708;9.706;2022-08-01T06:58:28;1.63;;;1.00;;
4432;SDS011;2229;48.708;9.706;2022-08-01T07:00:54;1.20;;;0.63;;
4432;SDS011;2229;48.708;9.706;2022-08-01T07:03:21;1.57;;;0.90;;
4432;SDS011;2229;48.708;9.706;2022-08-01T07:05:48;1.47;;;0.70;;
4432;SDS011;2229;48.708;9.706;2022-08-01T07:08:14;2.23;;;1.00;;
4432;SDS011;2229;48.708;9.706;2022-08-01T07:10:41;1.37;;;0.70;;
4432;SDS011;2229;48.708;9.706;2022-08-01T07:13:08;3.30;;;1.83;;
4432;SDS011;2229;48.708;9.706;2022-08-01T07:15:35;1.37;;;0.80;;
4432;SDS011;2229;48.708;9.706;2022-08-01T07:18:01;1.57;;;0.80;;
4432;SDS011;2229;48.708;9.706;2022-08-01T07:20:29;2.40;;;1.10;;
4432;SDS011;2229;48.708;9.706;2022-08-01T07:22:56;1.40;;;0.90;;
4432;SDS011;2229;48.708;9.706;2022-08-01T07:25:23;1.83;;;1.00;;
4432;SDS011;2229;48.708;9.706;2022-08-01T07:27:49;1.67;;;0.70;;
4432;SDS011;2229;48.708;9.706;2022-08-01T07:30:16;1.20;;;0.60;;
4432;SDS011;2229;48.708;9.706;2022-08-01T07:32:42;1.87;;;0.70;;
4432;SDS011;2229;48.708;9.706;2022-08-01T07:35:09;2.63;;;0.90;;
4432;SDS011;2229;48.708;9.706;2022-08-01T07:37:35;1.93;;;0.87;;
4432;SDS011;2229;48.708;9.706;2022-08-01T07:40:08;1.43;;;0.90;;
4432;SDS011;2229;48.708;9.706;2022-08-01T07:42:36;2.40;;;0.93;;
4432;SDS011;2229;48.708;9.706;2022-08-01T07:45:02;1.10;;;0.50;;
4432;SDS011;2229;48.708;9.706;2022-08-01T07:47:29;2.07;;;1.10;;
4432;SDS011;2229;48.708;9.706;2022-08-01T07:49:58;1.80;;;0.70;;
4432;SDS011;2229;48.708;9.706;2022-08-01T07:52:25;1.20;;;0.70;;
4432;SDS011;2229;48.708;9.706;2022-08-01T07:54:58;1.47;;;0.90;;
4432;SDS011;2229;48.708;9.706;2022-08-01T07:57:25;2.60;;;1.27;;
4432;SDS011;2229;48.708;9.706;2022-08-01T07:59:51;1.67;;;0.97;;
4432;SDS011;2229;48.708;9.706;2022-08-01T08:02:18;1.30;;;0.50;;
4432;SDS011;2229;48.708;9.706;2022-08-01T08:04:44;1.40;;;0.77;;
4432;SDS011;2229;48.708;9.706;2022-08-01T08:07:11;1.93;;;0.60;;
4432;SDS011;2229;48.708;9.706;2022-08-01T08:09:37;1.30;;;0.60;;
4432;SDS011;2229;48.708;9.706;2022-08-01T08:12:05;1.40;;;0.60;;
4432;SDS011;2229;48.708;9.706;2022-08-01T08:14:32;1.53;;;0.63;;
4432;SDS011;2229;48.708;9.706;2022-08-01T08:16:59;1.73;;;0.50;;
4432;SDS011;2229;48.708;9.706;2022-08-01T08:19:25;1.40;;;0.90;;
4432;SDS011;2229;48.708;9.706;2022-08-01T08:21:52;1.80;;;0.90;;
4432;SDS011;2229;48.708;9.706;2022-08-01T08:24:18;1.77;;;1.03;;
4432;SDS011;2229;48.708;9.706;2022-08-01T08:26:45;1.30;;;0.70;;
4432;SDS011;2229;48.708;9.706;2022-08-01T08:29:12;1.70;;;0.83;;
4432;SDS011;2229;48.708;9.706;2022-08-01T08:31:39;1.50;;;1.00;;
4432;SDS011;2229;48.708;9.706;2022-08-01T08:34:06;2.00;;;0.97;;
4432;SDS011;2229;48.708;9.706;2022-08-01T08:36:32;1.10;;;0.60;;
4432;SDS011;2229;48.708;9.706;2022-08-01T08:38:59;2.60;;;0.90;;
4432;SDS011;2229;48.708;9.706;2022-08-01T08:41:26;1.23;;;0.80;;
4432;SDS011;2229;48.708;9.706;2022-08-01T08:44:21;1.20;;;0.70;;
4432;SDS011;2229;48.708;9.706;2022-08-01T08:46:50;2.53;;;1.10;;
4432;SDS011;2229;48.708;9.706;2022-08-01T08:49:18;1.73;;;1.00;;
4432;SDS011;2229;48.708;9.706;2022-08-01T08:51:47;1.50;;;0.90;;
4432;SDS011;2229;48.708;9.706;2022-08-01T08:54:15;1.50;;;0.50;;
4432;SDS011;2229;48.708;9.706;2022-08-01T08:56:43;4.30;;;1.10;;
4432;SDS011;2229;48.708;9.706;2022-08-01T08:59:11;2.93;;;0.77;;
4432;SDS011;2229;48.708;9.706;2022-08-01T09:01:39;1.97;;;1.20;;
4432;SDS011;2229;48.708;9.706;2022-08-01T09:04:06;1.97;;;0.90;;
4432;SDS011;2229;48.708;9.706;2022-08-01T09:06:33;1.70;;;1.10;;
4432;SDS011;2229;48.708;9.706;2022-08-01T09:08:59;1.33;;;0.70;;
4432;SDS011;2229;48.708;9.706;2022-08-01T09:11:26;2.37;;;1.07;;
4432;SDS011;2229;48.708;9.706;2022-08-01T09:14:06;1.50;;;0.80;;
4432;SDS011;2229;48.708;9.706;2022-08-01T09:16:34;1.33;;;0.70;;
4432;SDS011;2229;48.708;9.706;2022-08-01T09:19:07;1.40;;;0.60;;
4432;SDS011;2229;48.708;9.706;2022-08-01T09:21:35;1.87;;;0.77;;
4432;SDS011;2229;48.708;9.706;2022-08-01T09:24:02;1.20;;;0.60;;
4432;SDS011;2229;48.708;9.706;2022-08-01T09:26:31;2.43;;;0.90;;
4432;SDS011;2229;48.708;9.706;2022-08-01T09:28:59;1.30;;;0.70;;
4432;SDS011;2229;48.708;9.706;2022-08-01T09:31:28;1.20;;;0.50;;
4432;SDS011;2229;48.708;9.706;2022-08-01T09:33:56;1.33;;;0.70;;
4432;SDS011;2229;48.708;9.706;2022-08-01T09:36:24;1.33;;;0.57;;
4432;SDS011;2229;48.708;9.706;2022-08-01T09:38:53;1.47;;;0.70;;
4432;SDS011;2229;48.708;9.706;2022-08-01T09:41:28;1.23;;;0.47;;
4432;SDS011;2229;48.708;9.706;2022-08-01T09:43:56;1.37;;;0.70;;
4432;SDS011;2229;48.708;9.706;2022-08-01T09:46:23;1.53;;;0.60;;
4432;SDS011;2229;48.708;9.706;2022-08-01T09:48:56;1.90;;;0.87;;
4432;SDS011;2229;48.708;9.706;2022-08-01T09:51:28;1.73;;;0.70;;
4432;SDS011;2229;48.708;9.706;2022-08-01T09:53:56;1.87;;;1.00;;
4432;SDS011;2229;48.708;9.706;2022-08-01T09:56:23;1.17;;;0.80;;
4432;SDS011;2229;48.708;9.706;2022-08-01T09:58:53;1.37;;;0.97;;
4432;SDS011;2229;48.708;9.706;2022-08-01T10:01:21;3.30;;;1.20;;
4432;SDS011;2229;48.708;9.706;2022-08-01T10:04:06;1.63;;;0.83;;
4432;SDS011;2229;48.708;9.706;2022-08-01T10:06:35;1.80;;;0.90;;
4432;SDS011;2229;48.708;9.706;2022-08-01T10:09:02;1.87;;;0.83;;
4432;SDS011;2229;48.708;9.706;2022-08-01T10:11:29;1.60;;;0.83;;
4432;SDS011;2229;48.708;9.706;2022-08-01T10:13:57;1.43;;;0.70;;
4432;SDS011;2229;48.708;9.706;2022-08-01T10:16:26;1.80;;;0.80;;
4432;SDS011;2229;48.708;9.706;2022-08-01T10:18:54;2.10;;;1.27;;
4432;SDS011;2229;48.708;9.706;2022-08-01T10:21:20;1.93;;;0.90;;
4432;SDS011;2229;48.708;9.706;2022-08-01T10:23:51;1.70;;;0.70;;
4432;SDS011;2229;48.708;9.706;2022-08-01T10:26:20;1.33;;;0.57;;
4432;SDS011;2229;48.708;9.706;2022-08-01T10:28:50;1.00;;;0.50;;
4432;SDS011;2229;48.708;9.706;2022-08-01T10:31:18;2.40;;;0.70;;
4432;SDS011;2229;48.708;9.706;2022-08-01T10:33:45;1.67;;;0.70;;
4432;SDS011;2229;48.708;9.706;2022-08-01T10:36:12;1.83;;;1.37;;
4432;SDS011;2229;48.708;9.706;2022-08-01T10:38:43;2.17;;;1.20;;
4432;SDS011;2229;48.708;9.706;2022-08-01T10:41:10;1.47;;;0.83;;
4432;SDS011;2229;48.708;9.706;2022-08-01T10:43:40;1.27;;;0.80;;
4432;SDS011;2229;48.708;9.706;2022-08-01T10:46:07;1.10;;;0.60;;
4432;SDS011;2229;48.708;9.706;2022-08-01T10:48:35;1.57;;;0.87;;
4432;SDS011;2229;48.708;9.706;2022-08-01T10:51:08;3.87;;;1.27;;
4432;SDS011;2229;48.708;9.706;2022-08-01T10:53:35;2.30;;;1.20;;
4432;SDS011;2229;48.708;9.706;2022-08-01T10:56:02;1.67;;;0.93;;
4432;SDS011;2229;48.708;9.706;2022-08-01T10:58:31;3.13;;;1.40;;
4432;SDS011;2229;48.708;9.706;2022-08-01T11:01:19;1.87;;;0.97;;
4432;SDS011;2229;48.708;9.706;2022-08-01T11:03:56;5.13;;;1.20;;
4432;SDS011;2229;48.708;9.706;2022-08-01T11:09:21;2.87;;;2.17;;
4432;SDS011;2229;48.708;9.706;2022-08-01T11:12:05;1.70;;;0.97;;
4432;SDS011;2229;48.708;9.706;2022-08-01T11:17:35;1.80;;;1.07;;
4432;SDS011;2229;48.708;9.706;2022-08-01T11:20:03;2.17;;;1.40;;
4432;SDS011;2229;48.708;9.706;2022-08-01T11:22:31;1.73;;;0.80;;
4432;SDS011;2229;48.708;9.706;2022-08-01T11:25:25;1.90;;;0.80;;
4432;SDS011;2229;48.708;9.706;2022-08-01T11:28:02;2.03;;;1.10;;
4432;SDS011;2229;48.708;9.706;2022-08-01T11:30:44;1.73;;;0.97;;
4432;SDS011;2229;48.708;9.706;2022-08-01T11:33:12;14.93;;;1.77;;
4432;SDS011;2229;48.708;9.706;2022-08-01T11:36:15;2.07;;;0.80;;
4432;SDS011;2229;48.708;9.706;2022-08-01T11:38:33;1.53;;;0.70;;
4432;SDS011;2229;48.708;9.706;2022-08-01T11:43:56;1.70;;;1.13;;
4432;SDS011;2229;48.708;9.706;2022-08-01T11:49:28;1.67;;;0.97;;
4432;SDS011;2229;48.708;9.706;2022-08-01T11:51:58;1.80;;;1.20;;
4432;SDS011;2229;48.708;9.706;2022-08-01T11:54:27;1.93;;;0.97;;
4432;SDS011;2229;48.708;9.706;2022-08-01T11:56:55;2.60;;;1.70;;
4432;SDS011;2229;48.708;9.706;2022-08-01T11:59:23;1.77;;;1.23;;
4432;SDS011;2229;48.708;9.706;2022-08-01T12:01:50;1.80;;;1.00;;
4432;SDS011;2229;48.708;9.706;2022-08-01T12:04:17;1.80;;;1.30;;
4432;SDS011;2229;48.708;9.706;2022-08-01T12:06:43;1.50;;;0.93;;
4432;SDS011;2229;48.708;9.706;2022-08-01T12:09:19;2.90;;;1.27;;
4432;SDS011;2229;48.708;9.706;2022-08-01T12:11:48;1.87;;;1.13;;
4432;SDS011;2229;48.708;9.706;2022-08-01T12:14:18;1.50;;;0.87;;
4432;SDS011;2229;48.708;9.706;2022-08-01T12:16:51;1.77;;;1.07;;
4432;SDS011;2229;48.708;9.706;2022-08-01T12:19:22;1.47;;;0.80;;
4432;SDS011;2229;48.708;9.706;2022-08-01T12:22:09;1.63;;;1.00;;
4432;SDS011;2229;48.708;9.706;2022-08-01T12:24:38;1.90;;;1.00;;
4432;SDS011;2229;48.708;9.706;2022-08-01T12:27:06;1.00;;;0.50;;
4432;SDS011;2229;48.708;9.706;2022-08-01T12:29:34;1.47;;;0.90;;
4432;SDS011;2229;48.708;9.706;2022-08-01T12:32:02;1.40;;;0.67;;
4432;SDS011;2229;48.708;9.706;2022-08-01T12:34:29;2.03;;;1.20;;
4432;SDS011;2229;48.708;9.706;2022-08-01T12:37:00;1.40;;;0.70;;
4432;SDS011;2229;48.708;9.706;2022-08-01T12:39:34;1.57;;;1.07;;
4432;SDS011;2229;48.708;9.706;2022-08-01T12:42:00;1.30;;;0.80;;
4432;SDS011;2229;48.708;9.706;2022-08-01T12:44:31;1.20;;;0.63;;
4432;SDS011;2229;48.708;9.706;2022-08-01T12:46:58;1.73;;;0.80;;
4432;SDS011;2229;48.708;9.706;2022-08-01T12:49:26;1.47;;;0.90;;
4432;SDS011;2229;48.708;9.706;2022-08-01T12:51:53;1.50;;;1.00;;
4432;SDS011;2229;48.708;9.706;2022-08-01T12:54:20;1.60;;;0.80;;
4432;SDS011;2229;48.708;9.706;2022-08-01T12:56:47;1.73;;;0.83;;
4432;SDS011;2229;48.708;9.706;2022-08-01T12:59:20;2.57;;;1.30;;
4432;SDS011;2229;48.708;9.706;2022-08-01T13:01:51;2.53;;;1.27;;
4432;SDS011;2229;48.708;9.706;2022-08-01T13:04:18;3.60;;;1.30;;
4432;SDS011;2229;48.708;9.706;2022-08-01T13:06:45;2.10;;;1.27;;
4432;SDS011;2229;48.708;9.706;2022-08-01T13:09:13;1.63;;;1.13;;
4432;SDS011;2229;48.708;9.706;2022-08-01T13:11:39;4.60;;;1.27;;
4432;SDS011;2229;48.708;9.706;2022-08-01T13:14:06;2.43;;;1.00;;
4432;SDS011;2229;48.708;9.706;2022-08-01T13:16:34;2.17;;;1.23;;
4432;SDS011;2229;48.708;9.706;2022-08-01T13:19:12;1.80;;;1.03;;
4432;SDS011;2229;48.708;9.706;2022-08-01T13:21:39;2.97;;;1.00;;
4432;SDS011;2229;48.708;9.706;2022-08-01T13:24:24;2.10;;;1.10;;
4432;SDS011;2229;48.708;9.706;2022-08-01T13:26:52;2.83;;;1.50;;
4432;SDS011;2229;48.708;9.706;2022-08-01T13:29:22;1.87;;;0.90;;
4432;SDS011;2229;48.708;9.706;2022-08-01T13:31:55;2.23;;;1.50;;
4432;SDS011;2229;48.708;9.706;2022-08-01T13:34:29;2.23;;;1.70;;
4432;SDS011;2229;48.708;9.706;2022-08-01T13:36:56;2.83;;;1.13;;
4432;SDS011;2229;48.708;9.706;2022-08-01T13:39:22;1.97;;;1.00;;
4432;SDS011;2229;48.708;9.706;2022-08-01T13:42:09;1.67;;;1.00;;
4432;SDS011;2229;48.708;9.706;2022-08-01T13:44:38;3.07;;;1.60;;
4432;SDS011;2229;48.708;9.706;2022-08-01T13:47:07;1.30;;;0.80;;
4432;SDS011;2229;48.708;9.706;2022-08-01T13:49:34;1.67;;;1.10;;
4432;SDS011;2229;48.708;9.706;2022-08-01T13:52:01;1.60;;;1.10;;
4432;SDS011;2229;48.708;9.706;2022-08-01T13:54:28;1.97;;;1.00;;
4432;SDS011;2229;48.708;9.706;2022-08-01T13:56:55;1.57;;;0.87;;
4432;SDS011;2229;48.708;9.706;2022-08-01T13:59:21;1.80;;;1.27;;
4432;SDS011;2229;48.708;9.706;2022-08-01T14:01:48;2.60;;;1.30;;
4432;SDS011;2229;48.708;9.706;2022-08-01T14:04:14;1.90;;;1.13;;
4432;SDS011;2229;48.708;9.706;2022-08-01T14:06:41;1.37;;;0.80;;
4432;SDS011;2229;48.708;9.706;2022-08-01T14:09:08;1.70;;;0.87;;
4432;SDS011;2229;48.708;9.706;2022-08-01T14:11:34;2.23;;;0.80;;
4432;SDS011;2229;48.708;9.706;2022-08-01T14:14:06;1.30;;;0.70;;
4432;SDS011;2229;48.708;9.706;2022-08-01T14:16:33;1.30;;;0.83;;
4432;SDS011;2229;48.708;9.706;2022-08-01T14:19:02;1.30;;;0.70;;
4432;SDS011;2229;48.708;9.706;2022-08-01T14:21:29;1.10;;;0.70;;
4432;SDS011;2229;48.708;9.706;2022-08-01T14:23:57;1.50;;;0.70;;
4432;SDS011;2229;48.708;9.706;2022-08-01T14:26:23;1.50;;;0.70;;
4432;SDS011;2229;48.708;9.706;2022-08-01T14:28:50;1.27;;;0.60;;
4432;SDS011;2229;48.708;9.706;2022-08-01T14:31:16;1.00;;;0.50;;
4432;SDS011;2229;48.708;9.706;2022-08-01T14:33:43;2.60;;;1.07;;
4432;SDS011;2229;48.708;9.706;2022-08-01T14:36:12;3.00;;;0.50;;
4432;SDS011;2229;48.708;9.706;2022-08-01T14:38:38;1.33;;;0.60;;
4432;SDS011;2229;48.708;9.706;2022-08-01T14:41:05;1.40;;;0.60;;
4432;SDS011;2229;48.708;9.706;2022-08-01T14:43:32;1.90;;;0.93;;
4432;SDS011;2229;48.708;9.706;2022-08-01T14:46:02;1.00;;;0.50;;
4432;SDS011;2229;48.708;9.706;2022-08-01T14:48:29;1.17;;;0.60;;
4432;SDS011;2229;48.708;9.706;2022-08-01T14:50:56;3.07;;;0.80;;
4432;SDS011;2229;48.708;9.706;2022-08-01T14:53:22;1.10;;;0.50;;
4432;SDS011;2229;48.708;9.706;2022-08-01T14:55:49;1.20;;;0.60;;
4432;SDS011;2229;48.708;9.706;2022-08-01T14:58:16;1.00;;;0.40;;
4432;SDS011;2229;48.708;9.706;2022-08-01T15:00:43;1.00;;;0.50;;
4432;SDS011;2229;48.708;9.706;2022-08-01T15:03:10;1.30;;;0.70;;
4432;SDS011;2229;48.708;9.706;2022-08-01T15:05:37;1.40;;;0.70;;
4432;SDS011;2229;48.708;9.706;2022-08-01T15:08:03;1.10;;;0.43;;
4432;SDS011;2229;48.708;9.706;2022-08-01T15:10:31;1.30;;;0.73;;
4432;SDS011;2229;48.708;9.706;2022-08-01T15:12:57;1.70;;;0.80;;
4432;SDS011;2229;48.708;9.706;2022-08-01T15:15:26;1.40;;;0.70;;
4432;SDS011;2229;48.708;9.706;2022-08-01T15:17:52;1.00;;;0.50;;
4432;SDS011;2229;48.708;9.706;2022-08-01T15:20:19;1.20;;;0.50;;
4432;SDS011;2229;48.708;9.706;2022-08-01T15:22:45;1.10;;;0.60;;
4432;SDS011;2229;48.708;9.706;2022-08-01T15:25:13;1.70;;;0.73;;
4432;SDS011;2229;48.708;9.706;2022-08-01T15:27:40;1.53;;;0.93;;
4432;SDS011;2229;48.708;9.706;2022-08-01T15:30:07;1.60;;;0.70;;
4432;SDS011;2229;48.708;9.706;2022-08-01T15:32:34;3.27;;;0.80;;
4432;SDS011;2229;48.708;9.706;2022-08-01T15:35:01;1.17;;;0.50;;
4432;SDS011;2229;48.708;9.706;2022-08-01T15:37:28;1.50;;;0.60;;